Time;durP1;ratioP1;P1;durP2;ratioP2;P2;SDS_P1;SDS_P2;PMS_P1;PMS_P2;Temp;Humidity;BMP_temperature;BMP_pressure;BME280_temperature;BME280_humidity;BME280_pressure;Samples;Min_cycle;Max_cycle;Signal;HPM_P1;HPM_P2
2022/04/21 00:01:32;;;;;;;95.70;86.40;;;;;;;4.41;74.95;97479.48;106503;1274;22578;-79
2022/04/21 00:04:00;;;;;;;88.00;80.10;;;;;;;4.38;74.80;97479.17;106866;1274;22719;-79
2022/04/21 00:06:28;;;;;;;82.10;74.60;;;;;;;4.38;74.88;97483.17;106919;1274;22559;-79
2022/04/21 00:08:56;;;;;;;84.70;76.60;;;;;;;4.40;74.83;97475.34;106223;1274;22542;-78
2022/04/21 00:11:24;;;;;;;82.50;74.80;;;;;;;4.41;74.96;97476.09;106038;1274;22627;-79
2022/04/21 00:13:52;;;;;;;87.00;79.40;;;;;;;4.39;75.25;97481.05;106063;1274;23224;-79
2022/04/21 00:16:19;;;;;;;85.60;77.50;;;;;;;4.38;75.36;97475.48;106046;1274;24112;-79
2022/04/21 00:18:48;;;;;;;79.80;72.60;;;;;;;4.36;75.44;97475.39;106156;1274;22560;-80
2022/04/21 00:21:16;;;;;;;77.90;71.10;;;;;;;4.36;74.94;97474.75;106097;1274;22855;-79
2022/04/21 00:23:44;;;;;;;75.90;69.10;;;;;;;4.37;75.12;97474.91;106113;1274;23129;-78
2022/04/21 00:26:13;;;;;;;80.80;73.60;;;;;;;4.39;75.30;97475.28;106091;1274;25488;-81
2022/04/21 00:28:41;;;;;;;78.50;70.40;;;;;;;4.39;75.26;97475.92;106147;1274;22576;-81
2022/04/21 00:31:08;;;;;;;80.40;73.30;;;;;;;4.38;75.38;97477.24;106558;1274;22619;-82
2022/04/21 00:33:36;;;;;;;75.90;69.50;;;;;;;4.36;75.33;97478.59;106025;1274;23432;-82
2022/04/21 00:36:05;;;;;;;73.70;67.10;;;;;;;4.33;75.49;97481.36;106925;1274;22672;-81
2022/04/21 00:38:33;;;;;;;69.10;62.70;;;;;;;4.30;75.69;97479.51;106326;1274;22540;-79
2022/04/21 00:41:01;;;;;;;72.10;65.80;;;;;;;4.32;75.88;97484.41;106227;1274;25328;-77
2022/04/21 00:43:30;;;;;;;72.20;66.00;;;;;;;4.36;75.91;97489.84;106188;1274;24194;-79
2022/04/21 00:45:57;;;;;;;76.20;69.40;;;;;;;4.36;75.89;97485.85;106609;1274;22550;-79
2022/04/21 00:48:27;;;;;;;74.50;68.00;;;;;;;4.35;76.17;97486.85;106223;1274;22781;-78
2022/04/21 00:50:56;;;;;;;79.70;72.70;;;;;;;4.31;75.86;97483.67;106134;1274;25367;-78
2022/04/21 00:53:24;;;;;;;77.10;70.40;;;;;;;4.29;76.20;97483.02;106220;1275;25433;-78
2022/04/21 00:55:53;;;;;;;73.50;67.20;;;;;;;4.31;75.99;97485.05;106238;1274;25508;-77
2022/04/21 00:58:21;;;;;;;74.50;67.40;;;;;;;4.32;76.01;97485.80;106406;1274;22653;-79
2022/04/21 01:00:48;;;;;;;75.50;69.10;;;;;;;4.35;75.91;97492.52;106599;1274;22551;-79
2022/04/21 01:03:17;;;;;;;78.10;71.30;;;;;;;4.38;76.17;97492.51;105983;1274;22662;-79
2022/04/21 01:05:47;;;;;;;79.70;72.60;;;;;;;4.39;76.13;97494.00;106222;1274;22607;-79
2022/04/21 01:08:15;;;;;;;82.70;75.60;;;;;;;4.36;76.19;97493.15;106113;1274;23916;-80
2022/04/21 01:10:43;;;;;;;77.00;69.80;;;;;;;4.32;76.11;97495.55;106046;1274;24215;-79
2022/04/21 01:13:12;;;;;;;74.20;67.50;;;;;;;4.28;76.37;97491.45;106269;1274;24432;-79
2022/04/21 01:15:41;;;;;;;76.30;69.10;;;;;;;4.31;76.58;97494.65;106259;1274;24431;-78
2022/04/21 01:18:09;;;;;;;76.80;69.80;;;;;;;4.36;76.35;97490.85;106373;1274;23432;-79
2022/04/21 01:20:37;;;;;;;77.00;70.30;;;;;;;4.41;76.78;97490.64;106281;1274;22766;-79
2022/04/21 01:23:05;;;;;;;80.40;73.20;;;;;;;4.40;76.63;97492.36;106327;1274;25490;-78
2022/04/21 01:25:39;;;;;;;84.40;76.80;;;;;;;4.37;76.69;97494.85;106395;1274;23291;-80
2022/04/21 01:28:09;;;;;;;84.40;76.40;;;;;;;4.30;76.75;97490.75;106455;1274;22561;-79
2022/04/21 01:30:38;;;;;;;83.40;75.90;;;;;;;4.27;77.00;97495.29;106533;1274;22531;-79
2022/04/21 01:33:09;;;;;;;82.40;74.80;;;;;;;4.26;76.77;97490.44;106068;1277;22536;-80
2022/04/21 01:35:38;;;;;;;80.00;72.70;;;;;;;4.25;76.58;97487.88;106300;1274;24456;-78
2022/04/21 01:41:10;;;;;;;93.90;85.30;;;;;;;4.29;77.10;97486.59;106297;1274;22728;-79
2022/04/21 01:43:40;;;;;;;95.00;86.20;;;;;;;4.30;76.98;97487.40;106282;1274;22868;-79
2022/04/21 01:46:09;;;;;;;88.40;80.50;;;;;;;4.28;77.06;97485.68;106588;1274;22554;-79
2022/04/21 01:48:37;;;;;;;88.50;80.50;;;;;;;4.27;76.88;97484.30;106116;1274;22550;-78
2022/04/21 01:51:05;;;;;;;87.70;79.90;;;;;;;4.28;77.11;97485.16;106254;1274;22554;-78
2022/04/21 01:53:33;;;;;;;85.40;77.70;;;;;;;4.29;76.87;97480.40;106199;1274;22554;-78
2022/04/21 01:56:01;;;;;;;88.10;80.40;;;;;;;4.29;77.00;97478.92;106289;1274;25364;-80
2022/04/21 01:58:29;;;;;;;86.90;78.70;;;;;;;4.28;77.21;97473.32;106243;1274;22635;-79
2022/04/21 02:00:57;;;;;;;94.30;85.30;;;;;;;4.25;77.32;97473.04;106348;1274;23817;-77
2022/04/21 02:03:25;;;;;;;91.40;83.50;;;;;;;4.20;77.09;97472.09;106077;1274;24427;-78
2022/04/21 02:05:52;;;;;;;87.20;79.50;;;;;;;4.17;77.10;97479.77;106608;1273;24435;-78
2022/04/21 02:08:20;;;;;;;83.70;76.10;;;;;;;4.19;77.27;97482.39;106762;1274;22611;-78
2022/04/21 02:10:48;;;;;;;84.50;76.40;;;;;;;4.27;77.67;97481.52;106211;1274;22681;-77
2022/04/21 02:13:16;;;;;;;89.00;80.90;;;;;;;4.34;77.71;97482.42;106221;1274;22578;-78
2022/04/21 02:15:44;;;;;;;91.20;83.20;;;;;;;4.37;77.52;97478.80;106204;1274;26908;-79
2022/04/21 02:18:13;;;;;;;89.50;81.60;;;;;;;4.35;77.66;97479.40;106374;1274;23177;-78
2022/04/21 02:20:41;;;;;;;86.70;79.20;;;;;;;4.27;77.61;97474.76;106579;1274;24207;-79
2022/04/21 02:23:09;;;;;;;82.90;75.70;;;;;;;4.24;77.39;97478.01;106391;1274;23007;-80
2022/04/21 02:25:37;;;;;;;81.70;74.40;;;;;;;4.21;77.27;97479.09;106414;1273;22648;-79
2022/04/21 02:28:07;;;;;;;80.70;73.90;;;;;;;4.21;77.08;97482.39;106348;1274;22555;-79
2022/04/21 02:30:35;;;;;;;83.10;76.20;;;;;;;4.20;77.38;97486.01;106428;1274;25361;-79
2022/04/21 02:33:03;;;;;;;86.50;79.20;;;;;;;4.23;77.55;97483.23;106412;1274;22577;-80
2022/04/21 02:35:31;;;;;;;87.80;80.10;;;;;;;4.23;77.45;97478.65;106451;1273;24221;-80
2022/04/21 02:37:59;;;;;;;88.00;80.10;;;;;;;4.23;77.49;97473.90;106407;1274;22612;-79
2022/04/21 02:40:26;;;;;;;81.50;74.20;;;;;;;4.28;78.01;97472.94;106364;1274;22647;-79
2022/04/21 02:42:55;;;;;;;83.10;75.80;;;;;;;4.31;77.41;97468.08;106480;1274;24259;-79
2022/04/21 02:45:23;;;;;;;84.80;76.40;;;;;;;4.32;77.35;97467.39;106309;1274;22610;-79
2022/04/21 02:47:50;;;;;;;92.00;83.20;;;;;;;4.29;77.58;97469.95;106264;1274;22796;-79
2022/04/21 02:50:19;;;;;;;110.30;93.40;;;;;;;4.28;77.43;97471.34;106220;1274;24435;-79
2022/04/21 02:52:47;;;;;;;151.40;105.70;;;;;;;4.23;77.40;97468.73;106257;1274;22631;-80
2022/04/21 02:58:02;;;;;;;118.30;91.20;;;;;;;4.15;77.49;97470.88;106262;1274;22738;-79
2022/04/21 03:00:30;;;;;;;89.80;81.80;;;;;;;4.17;77.88;97472.52;106272;1274;25778;-78
2022/04/21 03:02:58;;;;;;;93.80;84.50;;;;;;;4.18;77.60;97477.97;106266;1274;23586;-77
2022/04/21 03:05:26;;;;;;;93.70;84.30;;;;;;;4.18;77.57;97474.23;106243;1274;22547;-79
2022/04/21 03:07:54;;;;;;;92.70;84.30;;;;;;;4.18;77.82;97461.59;106227;1274;22547;-79
2022/04/21 03:10:22;;;;;;;92.50;83.40;;;;;;;4.19;77.74;97460.53;106230;1274;22652;-78
2022/04/21 03:12:50;;;;;;;99.20;89.20;;;;;;;4.16;77.61;97466.92;106255;1274;24260;-80
2022/04/21 03:15:18;;;;;;;83.30;75.30;;;;;;;4.15;77.74;97471.61;106227;1274;25470;-78
2022/04/21 03:17:47;;;;;;;77.70;70.80;;;;;;;4.16;77.93;97467.19;106078;1274;22568;-79
2022/04/21 03:25:49;;;;;;;92.50;84.30;;;;;;;4.13;77.72;97463.30;106113;1274;24251;-79
2022/04/21 03:28:16;;;;;;;87.90;79.80;;;;;;;4.09;78.00;97452.09;106231;1274;22566;-78
2022/04/21 03:30:44;;;;;;;104.30;93.50;;;;;;;4.07;77.81;97442.93;106342;1274;22565;-80
2022/04/21 03:33:12;;;;;;;100.00;89.60;;;;;;;4.06;77.81;97438.40;106371;1274;22848;-81
2022/04/21 03:35:40;;;;;;;93.30;83.70;;;;;;;4.07;77.73;97452.31;106405;1274;26669;-79
2022/04/21 03:38:08;;;;;;;95.70;86.20;;;;;;;4.09;77.78;97450.02;106278;1275;22638;-78
2022/04/21 03:40:35;;;;;;;96.10;86.40;;;;;;;4.09;78.07;97445.86;106346;1274;22731;-78
2022/04/21 03:43:03;;;;;;;101.80;91.50;;;;;;;4.13;78.22;97444.52;106253;1274;23935;-79
2022/04/21 03:45:33;;;;;;;100.90;90.50;;;;;;;4.12;78.11;97448.36;106263;1274;25522;-78
2022/04/21 03:48:02;;;;;;;88.40;80.20;;;;;;;4.11;78.04;97453.64;106263;1274;25380;-79
2022/04/21 03:50:31;;;;;;;93.00;83.20;;;;;;;4.13;78.29;97454.92;106261;1274;26695;-78
2022/04/21 03:52:59;;;;;;;89.90;81.20;;;;;;;4.16;78.31;97457.21;106227;1274;23344;-79
2022/04/21 03:55:27;;;;;;;96.10;86.50;;;;;;;4.17;78.01;97463.45;106235;1274;24305;-79
2022/04/21 03:57:54;;;;;;;95.90;86.60;;;;;;;4.17;78.20;97462.81;106273;1274;22683;-79
2022/04/21 04:00:22;;;;;;;94.60;85.50;;;;;;;4.17;78.09;97465.64;106218;1274;24422;-78
2022/04/21 04:02:50;;;;;;;99.10;89.70;;;;;;;4.16;78.24;97469.59;106300;1274;25238;-76
2022/04/21 04:05:18;;;;;;;94.70;86.00;;;;;;;4.16;78.15;97474.39;106309;1274;22572;-79
2022/04/21 04:13:20;;;;;;;92.50;84.30;;;;;;;4.17;78.14;97477.75;106283;1274;22565;-78
2022/04/21 04:15:52;;;;;;;96.30;86.90;;;;;;;4.14;78.25;97477.59;106401;1274;22548;-78
2022/04/21 04:18:20;;;;;;;97.50;88.90;;;;;;;4.10;78.48;97477.59;106301;1274;22776;-78
2022/04/21 04:20:49;;;;;;;108.60;97.60;;;;;;;4.07;78.56;97475.56;106262;1274;25363;-79
2022/04/21 04:23:18;;;;;;;98.70;89.40;;;;;;;4.04;78.46;97474.50;106088;1274;25679;-78
2022/04/21 04:25:46;;;;;;;93.80;85.30;;;;;;;4.03;78.36;97477.44;106177;1274;22555;-78
2022/04/21 04:28:14;;;;;;;91.70;83.30;;;;;;;4.04;78.48;97480.67;106010;1274;24230;-79
2022/04/21 04:30:43;;;;;;;91.70;83.80;;;;;;;4.06;78.30;97480.36;106252;1274;24396;-79
2022/04/21 04:33:10;;;;;;;93.90;85.20;;;;;;;4.02;78.23;97477.32;106222;1274;25353;-79
2022/04/21 04:35:38;;;;;;;107.80;97.30;;;;;;;3.96;78.43;97483.19;106060;1274;22565;-78
2022/04/21 04:38:06;;;;;;;112.30;100.80;;;;;;;3.94;78.81;97482.33;106248;1274;24493;-78
2022/04/21 04:40:34;;;;;;;111.10;98.00;;;;;;;3.96;78.96;97485.10;106212;1274;22557;-79
2022/04/21 04:43:03;;;;;;;99.60;90.00;;;;;;;3.99;78.91;97485.42;106239;1274;24604;-78
2022/04/21 04:48:17;;;;;;;96.60;87.90;;;;;;;4.10;78.66;97483.52;106212;1274;22575;-78
2022/04/21 04:50:46;;;;;;;104.60;94.80;;;;;;;4.11;78.93;97482.81;106252;1274;22553;-79
2022/04/21 04:53:14;;;;;;;107.70;97.40;;;;;;;4.12;78.87;97481.21;106067;1277;22611;-79
2022/04/21 04:55:42;;;;;;;107.20;96.80;;;;;;;4.13;79.00;97480.31;106250;1274;24418;-80
2022/04/21 04:58:09;;;;;;;102.40;91.80;;;;;;;4.15;78.97;97478.08;106254;1274;22622;-79
2022/04/21 05:00:37;;;;;;;95.40;86.70;;;;;;;4.17;78.95;97477.73;106242;1274;22633;-78
2022/04/21 05:03:05;;;;;;;94.20;85.40;;;;;;;4.18;78.81;97473.00;106216;1274;24238;-77
2022/04/21 05:05:33;;;;;;;99.20;89.60;;;;;;;4.23;78.78;97468.84;106230;1274;22649;-80
2022/04/21 05:08:05;;;;;;;99.00;90.10;;;;;;;4.27;78.96;97470.86;106102;1274;23970;-78
2022/04/21 05:10:33;;;;;;;102.30;92.50;;;;;;;4.32;79.18;97472.93;106247;1274;24246;-78
2022/04/21 05:13:01;;;;;;;106.90;96.40;;;;;;;4.34;79.21;97475.02;106274;1274;22789;-78
2022/04/21 05:15:29;;;;;;;101.30;91.50;;;;;;;4.32;79.19;97471.61;106259;1274;22844;-78
2022/04/21 05:17:57;;;;;;;99.00;90.00;;;;;;;4.33;79.15;97470.16;105977;1274;24374;-78
2022/04/21 05:20:26;;;;;;;100.90;91.60;;;;;;;4.39;79.12;97471.77;106228;1274;22539;-79
2022/04/21 05:23:05;;;;;;;109.20;98.20;;;;;;;4.43;79.18;97470.27;106227;1274;24215;-79
2022/04/21 05:25:36;;;;;;;113.00;100.90;;;;;;;4.46;79.27;97471.42;106283;1274;22595;-80
2022/04/21 05:28:07;;;;;;;125.90;103.20;;;;;;;4.46;79.27;97478.25;106236;1274;22551;-80
2022/04/21 05:31:12;;;;;;;114.30;102.30;;;;;;;4.44;79.21;97477.14;106320;1275;22700;-80
2022/04/21 05:33:35;;;;;;;101.90;91.90;;;;;;;4.44;79.55;97477.62;106260;1274;22572;-80
2022/04/21 05:36:04;;;;;;;98.90;89.60;;;;;;;4.46;79.27;97477.56;106337;1274;24491;-78
2022/04/21 05:38:32;;;;;;;100.60;90.20;;;;;;;4.51;79.35;97482.68;106247;1274;25483;-79
2022/04/21 05:41:00;;;;;;;107.60;95.90;;;;;;;4.57;79.22;97479.19;106340;1274;22561;-79
2022/04/21 05:43:40;;;;;;;123.50;106.10;;;;;;;4.61;79.31;97477.21;106252;1274;22624;-78
2022/04/21 05:46:09;;;;;;;131.20;104.70;;;;;;;4.66;79.42;97475.08;106250;1274;24342;-79
2022/04/21 05:48:38;;;;;;;107.60;96.20;;;;;;;4.72;79.41;97473.02;106502;1274;22544;-79
2022/04/21 05:51:10;;;;;;;96.40;87.50;;;;;;;4.76;79.34;97478.20;106042;1274;22570;-79
2022/04/21 05:53:45;;;;;;;89.10;80.40;;;;;;;4.80;79.20;97480.58;106266;1274;22779;-79
2022/04/21 05:56:13;;;;;;;92.50;84.20;;;;;;;4.86;78.89;97477.73;106286;1274;24437;-77
2022/04/21 05:58:42;;;;;;;94.10;85.80;;;;;;;4.92;79.51;97482.58;106268;1274;22562;-77
2022/04/21 06:01:10;;;;;;;94.80;85.50;;;;;;;4.98;79.20;97487.32;106059;1274;24431;-79
2022/04/21 06:03:39;;;;;;;94.20;85.60;;;;;;;4.99;78.97;97487.46;106212;1275;22689;-78
2022/04/21 06:06:09;;;;;;;93.20;84.90;;;;;;;5.00;79.28;97489.34;106251;1274;24210;-78
2022/04/21 06:08:40;;;;;;;85.20;77.40;;;;;;;5.06;79.25;97492.64;106261;1274;22618;-79
2022/04/21 06:11:07;;;;;;;82.90;75.60;;;;;;;5.11;79.29;97486.58;106250;1274;23184;-79
2022/04/21 06:13:36;;;;;;;82.30;75.20;;;;;;;5.22;79.53;97484.92;106292;1274;24275;-79
2022/04/21 06:16:04;;;;;;;87.50;79.10;;;;;;;5.30;79.32;97480.67;106256;1274;25359;-79
2022/04/21 06:18:32;;;;;;;91.60;83.00;;;;;;;5.34;79.28;97482.73;106236;1277;24282;-77
2022/04/21 06:21:00;;;;;;;80.70;72.10;;;;;;;5.40;79.33;97488.15;106315;1274;22660;-78
2022/04/21 06:23:28;;;;;;;73.00;66.40;;;;;;;5.46;79.27;97486.84;106090;1274;24221;-77
2022/04/21 06:25:59;;;;;;;75.00;68.00;;;;;;;5.53;79.09;97488.31;106284;1274;25507;-78
2022/04/21 06:28:28;;;;;;;78.70;71.60;;;;;;;5.61;79.32;97490.12;106233;1274;25320;-78
2022/04/21 06:30:56;;;;;;;58.00;52.70;;;;;;;5.68;78.87;97483.78;106228;1274;22715;-78
2022/04/21 06:33:24;;;;;;;68.50;62.40;;;;;;;5.69;78.88;97478.80;106319;1274;22747;-81
2022/04/21 06:35:52;;;;;;;70.20;64.10;;;;;;;5.67;78.89;97479.35;106063;1277;22584;-78
2022/04/21 06:38:20;;;;;;;65.20;59.40;;;;;;;5.65;78.94;97471.50;106241;1274;22584;-78
2022/04/21 06:40:48;;;;;;;64.20;58.50;;;;;;;5.78;79.13;97471.10;106042;1274;22843;-78
2022/04/21 06:49:08;;;;;;;56.40;51.30;;;;;;;6.07;78.23;97463.85;106277;1275;22685;-78
2022/04/21 06:51:36;;;;;;;53.00;48.10;;;;;;;6.06;78.60;97466.00;106259;1274;22541;-81
2022/04/21 06:54:04;;;;;;;52.60;47.70;;;;;;;6.16;78.46;97467.70;106346;1274;24375;-79
2022/04/21 06:56:32;;;;;;;52.70;48.00;;;;;;;6.28;78.35;97472.29;106237;1274;24614;-80
2022/04/21 06:59:00;;;;;;;58.40;52.60;;;;;;;6.34;78.27;97474.98;106187;1274;25353;-79
2022/04/21 07:01:28;;;;;;;60.50;54.80;;;;;;;6.41;78.37;97477.21;106066;1275;22689;-79
2022/04/21 07:03:56;;;;;;;57.50;52.60;;;;;;;6.46;77.98;97476.52;106271;1274;22572;-80
2022/04/21 07:06:24;;;;;;;58.10;52.40;;;;;;;6.47;77.81;97478.65;106215;1277;24071;-81
2022/04/21 07:08:52;;;;;;;56.70;51.70;;;;;;;6.52;77.88;97483.27;106373;1273;22697;-82
2022/04/21 07:11:20;;;;;;;56.60;51.50;;;;;;;6.60;77.92;97486.67;106166;1274;22552;-81
2022/04/21 07:13:48;;;;;;;52.10;47.60;;;;;;;6.71;77.87;97489.61;106671;1274;22538;-80
2022/04/21 07:16:16;;;;;;;55.50;50.40;;;;;;;6.82;77.91;97486.72;107696;1274;22484;-80
2022/04/21 07:18:44;;;;;;;57.40;52.10;;;;;;;6.91;77.55;97489.09;107858;1274;25243;-78
2022/04/21 07:21:12;;;;;;;58.00;53.00;;;;;;;6.91;77.73;97475.90;106150;1274;23066;-77
2022/04/21 07:23:41;;;;;;;56.10;51.30;;;;;;;6.97;77.46;97477.50;105797;1275;22659;-80
2022/04/21 07:26:09;;;;;;;51.90;47.70;;;;;;;7.11;77.12;97490.79;106180;1274;22569;-79
2022/04/21 07:28:37;;;;;;;49.50;45.00;;;;;;;7.17;77.23;97494.30;106037;1274;22984;-79
2022/04/21 07:31:05;;;;;;;41.10;37.60;;;;;;;7.21;76.94;97497.58;106312;1274;22483;-79
2022/04/21 07:33:33;;;;;;;45.80;41.90;;;;;;;7.24;77.00;97494.86;106305;1275;25419;-79
2022/04/21 07:36:02;;;;;;;47.50;43.30;;;;;;;7.35;76.35;97498.16;106069;1274;22530;-80
2022/04/21 07:38:31;;;;;;;53.60;49.10;;;;;;;7.44;76.37;97500.41;106289;1274;22623;-79
2022/04/21 07:40:59;;;;;;;45.50;41.70;;;;;;;7.51;76.63;97502.20;106049;1274;22612;-79
2022/04/21 07:43:27;;;;;;;46.30;42.30;;;;;;;7.51;75.94;97500.36;106121;1274;22528;-79
2022/04/21 07:45:55;;;;;;;39.30;36.00;;;;;;;7.56;76.02;97499.13;105979;1274;22824;-78
2022/04/21 07:48:23;;;;;;;43.10;39.20;;;;;;;7.60;75.75;97498.27;106223;1275;22609;-78
2022/04/21 07:50:51;;;;;;;42.40;38.50;;;;;;;7.68;75.61;97504.05;105814;1277;25508;-79
2022/04/21 07:53:21;;;;;;;36.60;33.40;;;;;;;7.73;74.92;97500.94;106008;1274;25358;-79
2022/04/21 07:55:50;;;;;;;38.80;35.30;;;;;;;7.82;75.37;97502.85;106092;1277;24409;-77
2022/04/21 07:58:19;;;;;;;36.30;33.10;;;;;;;7.96;75.00;97501.68;106315;1274;25247;-79
2022/04/21 08:00:47;;;;;;;36.70;33.30;;;;;;;8.08;74.37;97508.37;106277;1274;25379;-79
2022/04/21 08:03:18;;;;;;;38.20;34.90;;;;;;;8.11;73.63;97509.55;106290;1274;22569;-78
2022/04/21 08:05:47;;;;;;;39.60;36.20;;;;;;;8.14;73.41;97505.23;106256;1274;22581;-81
2022/04/21 08:08:15;;;;;;;36.00;33.00;;;;;;;8.22;73.48;97511.77;106035;1274;23955;-79
2022/04/21 08:10:43;;;;;;;34.90;32.00;;;;;;;8.31;72.90;97509.84;105855;1277;22691;-79
2022/04/21 08:13:16;;;;;;;35.20;32.20;;;;;;;8.38;72.54;97511.30;105978;1274;22567;-79
2022/04/21 08:15:48;;;;;;;31.60;29.00;;;;;;;8.46;73.31;97503.13;106039;1274;25393;-78
2022/04/21 08:18:17;;;;;;;36.00;32.90;;;;;;;8.58;73.04;97510.39;106129;1274;24376;-78
2022/04/21 08:20:47;;;;;;;34.10;31.30;;;;;;;8.57;71.45;97513.45;106260;1274;22601;-79
2022/04/21 08:23:16;;;;;;;35.80;32.70;;;;;;;8.54;70.45;97516.36;106238;1273;22569;-78
2022/04/21 08:34:16;;;;;;;39.30;35.80;;;;;;;8.70;71.19;97506.52;106256;1274;24261;-80
2022/04/21 08:36:51;;;;;;;35.00;31.80;;;;;;;8.79;71.58;97503.08;105957;1274;22730;-79
2022/04/21 08:39:20;;;;;;;35.10;32.20;;;;;;;8.93;70.91;97499.17;106252;1274;25489;-79
2022/04/21 08:41:54;;;;;;;29.90;27.50;;;;;;;9.00;69.39;97503.44;106321;1274;22691;-79
2022/04/21 08:44:22;;;;;;;30.30;27.70;;;;;;;8.95;68.88;97493.17;106060;1274;23433;-79
2022/04/21 08:46:50;;;;;;;29.40;26.90;;;;;;;9.03;70.06;97489.21;106014;1274;22593;-78
2022/04/21 08:49:21;;;;;;;28.90;26.60;;;;;;;9.25;69.65;97495.88;106225;1274;22549;-78
2022/04/21 08:51:50;;;;;;;32.10;29.50;;;;;;;9.34;67.76;97493.27;106182;1277;22616;-78
2022/04/21 08:54:18;;;;;;;31.50;28.90;;;;;;;9.36;68.36;97487.65;105904;1275;22576;-80
2022/04/21 08:56:47;;;;;;;30.70;28.30;;;;;;;9.32;66.34;97492.13;106234;1274;24235;-79
2022/04/21 08:59:16;;;;;;;29.60;26.90;;;;;;;9.06;66.51;97477.16;106298;1274;22554;-79
2022/04/21 09:01:44;;;;;;;30.00;27.50;;;;;;;9.13;66.11;97489.93;106078;1276;22618;-80
2022/04/21 09:04:12;;;;;;;28.90;26.40;;;;;;;9.12;66.19;97492.41;106327;1274;22622;-78
2022/04/21 09:06:40;;;;;;;27.10;24.80;;;;;;;9.02;64.45;97487.88;105994;1274;25384;-78
2022/04/21 09:09:21;;;;;;;27.80;25.50;;;;;;;9.04;66.26;97489.07;105860;1277;22612;-80
2022/04/21 09:11:53;;;;;;;25.30;23.20;;;;;;;9.11;65.57;97490.98;106061;1274;22557;-81
2022/04/21 09:14:20;;;;;;;26.80;24.60;;;;;;;9.02;65.26;97493.16;106845;1274;22548;-78
2022/04/21 09:16:48;;;;;;;26.40;24.00;;;;;;;8.96;65.40;97490.27;106287;1274;22546;-79
2022/04/21 09:19:17;;;;;;;26.80;24.50;;;;;;;8.87;64.51;97495.14;106355;1274;22524;-78
2022/04/21 09:21:45;;;;;;;24.40;22.20;;;;;;;8.77;64.56;97492.11;107118;1274;23220;-77
2022/04/21 09:24:24;;;;;;;23.60;21.60;;;;;;;8.72;65.18;97489.36;106484;1274;25374;-77
2022/04/21 09:26:55;;;;;;;24.70;22.60;;;;;;;8.71;64.66;97486.10;106554;1274;22675;-77
2022/04/21 09:29:28;;;;;;;25.70;23.60;;;;;;;8.68;64.05;97488.89;106277;1274;24375;-78
2022/04/21 09:31:58;;;;;;;25.40;23.20;;;;;;;8.58;63.04;97488.58;106230;1274;22588;-79
2022/04/21 09:34:37;;;;;;;20.40;18.70;;;;;;;8.47;63.52;97484.80;105959;1274;22688;-80
2022/04/21 09:37:07;;;;;;;24.30;22.00;;;;;;;8.42;63.31;97485.05;106522;1274;22720;-80
2022/04/21 09:39:40;;;;;;;22.20;20.30;;;;;;;8.39;63.84;97487.98;106658;1274;23250;-80
2022/04/21 09:42:08;;;;;;;24.40;22.30;;;;;;;8.41;64.07;97487.68;106553;1274;22645;-80
2022/04/21 09:47:30;;;;;;;25.40;23.30;;;;;;;8.37;63.53;97490.35;106329;1277;23120;-79
2022/04/21 09:50:10;;;;;;;27.20;24.80;;;;;;;8.39;63.69;97486.64;106547;1274;24249;-79
2022/04/21 09:52:50;;;;;;;23.40;21.50;;;;;;;8.46;63.68;97485.41;106469;1274;22554;-77
2022/04/21 09:55:27;;;;;;;21.50;19.70;;;;;;;8.50;63.98;97482.91;106514;1274;22560;-78
2022/04/21 09:58:04;;;;;;;19.90;17.80;;;;;;;8.55;63.44;97485.03;106508;1274;23199;-78
2022/04/21 10:00:35;;;;;;;21.90;19.90;;;;;;;8.60;63.66;97485.59;106674;1274;24405;-76
2022/04/21 10:03:05;;;;;;;21.60;19.60;;;;;;;8.69;63.32;97485.44;106504;1274;22559;-79
2022/04/21 10:05:35;;;;;;;21.00;19.20;;;;;;;8.76;62.55;97486.32;106620;1272;24863;-78
2022/04/21 10:08:05;;;;;;;20.80;19.00;;;;;;;8.88;63.14;97484.02;106037;1274;25500;-78
2022/04/21 10:10:37;;;;;;;18.80;17.20;;;;;;;9.04;63.57;97476.84;106502;1274;23971;-80
2022/04/21 10:13:06;;;;;;;20.70;18.80;;;;;;;9.19;63.40;97480.19;106679;1274;25305;-78
2022/04/21 10:15:35;;;;;;;21.10;19.10;;;;;;;9.32;63.51;97481.70;106736;1274;26685;-79
2022/04/21 10:18:04;;;;;;;19.90;18.00;;;;;;;9.43;63.64;97481.74;104829;1274;2425120;-78
2022/04/21 10:20:33;;;;;;;16.90;15.30;;;;;;;9.51;62.64;97484.58;106490;1274;22538;-78
2022/04/21 10:23:02;;;;;;;15.40;14.00;;;;;;;9.55;62.41;97478.48;106606;1274;26744;-78
2022/04/21 10:25:35;;;;;;;14.80;13.50;;;;;;;9.61;61.51;97484.91;106597;1274;24168;-78
2022/04/21 10:28:36;;;;;;;13.00;11.90;;;;;;;9.67;61.67;97476.98;106672;1274;23198;-78
2022/04/21 10:31:30;;;;;;;16.10;12.90;;;;;;;9.81;59.91;97479.40;106358;1277;22673;-77
2022/04/21 10:34:06;;;;;;;15.90;14.30;;;;;;;9.94;60.75;97476.01;105986;1274;23714;-78
2022/04/21 10:36:33;;;;;;;14.90;13.40;;;;;;;10.08;60.11;97473.89;106128;1274;22691;-79
2022/04/21 10:39:10;;;;;;;15.10;12.00;;;;;;;10.20;59.58;97474.20;106094;1274;25827;-79
2022/04/21 10:41:41;;;;;;;14.70;13.20;;;;;;;10.36;59.24;97479.83;106128;1274;22624;-78
2022/04/21 10:44:16;;;;;;;15.50;13.90;;;;;;;10.45;57.58;97481.96;106543;1274;23961;-80
2022/04/21 10:46:44;;;;;;;16.00;14.50;;;;;;;10.51;55.70;97481.33;106420;1274;22793;-78
2022/04/21 10:50:06;;;;;;;13.00;11.80;;;;;;;10.62;57.89;97473.73;106534;1274;22494;-78
2022/04/21 10:57:49;;;;;;;15.20;13.80;;;;;;;11.09;56.99;97468.95;106519;1274;22792;-78
2022/04/21 11:00:28;;;;;;;14.90;13.40;;;;;;;11.21;57.83;97465.72;106567;1273;22609;-78
2022/04/21 11:03:03;;;;;;;15.00;13.60;;;;;;;11.37;58.22;97454.23;106789;1274;22711;-78
2022/04/21 11:05:36;;;;;;;15.50;14.00;;;;;;;11.60;58.33;97455.73;106858;1274;22860;-79
2022/04/21 11:08:11;;;;;;;15.00;13.60;;;;;;;11.77;56.17;97457.34;106767;1274;23535;-79
2022/04/21 11:10:39;;;;;;;15.80;14.30;;;;;;;11.77;51.99;97465.53;106243;1274;22575;-77
2022/04/21 11:13:08;;;;;;;16.40;15.00;;;;;;;11.68;53.11;97464.80;106201;1274;22685;-79
2022/04/21 11:15:37;;;;;;;15.20;13.90;;;;;;;11.51;52.79;97465.44;106262;1274;22602;-77
2022/04/21 11:18:10;;;;;;;15.40;14.10;;;;;;;11.42;53.95;97465.32;106142;1274;25714;-79
2022/04/21 11:20:42;;;;;;;14.50;13.30;;;;;;;11.41;54.81;97456.34;105949;1275;23411;-77
2022/04/21 11:23:29;;;;;;;13.90;12.70;;;;;;;11.56;55.15;97452.08;106227;1274;24746;-77
2022/04/21 11:26:05;;;;;;;13.50;12.30;;;;;;;11.67;55.02;97447.20;106009;1274;25406;-79
2022/04/21 11:28:33;;;;;;;13.20;12.00;;;;;;;11.68;51.79;97445.94;106198;1274;25263;-80
2022/04/21 11:31:03;;;;;;;12.00;11.00;;;;;;;11.51;49.86;97439.66;106014;1273;24236;-76
2022/04/21 11:33:31;;;;;;;11.60;10.60;;;;;;;11.37;51.38;97445.98;106824;1273;24966;-77
2022/04/21 11:36:14;;;;;;;13.10;11.90;;;;;;;11.28;52.61;97440.45;106727;1274;22556;-77
2022/04/21 11:38:44;;;;;;;14.40;13.30;;;;;;;11.21;51.75;97440.91;106718;1274;22540;-77
2022/04/21 11:41:13;;;;;;;13.90;12.80;;;;;;;11.15;51.74;97444.35;106626;1274;25531;-78
2022/04/21 11:43:46;;;;;;;14.70;12.60;;;;;;;11.03;51.91;97443.59;106826;1274;22642;-77
2022/04/21 11:46:14;;;;;;;13.50;12.20;;;;;;;10.98;53.38;97438.36;106175;1274;22700;-78
2022/04/21 11:48:42;;;;;;;13.60;12.40;;;;;;;11.01;52.74;97436.45;106215;1274;22566;-77
2022/04/21 11:51:12;;;;;;;16.80;15.30;;;;;;;10.98;52.93;97437.73;106707;1274;22553;-77
2022/04/21 11:53:41;;;;;;;18.80;17.10;;;;;;;10.86;52.05;97440.52;106696;1274;22723;-76
2022/04/21 11:56:11;;;;;;;19.40;17.70;;;;;;;10.80;52.87;97434.60;107155;1274;22562;-77
2022/04/21 11:58:41;;;;;;;20.90;19.00;;;;;;;10.83;52.87;97439.05;106830;1274;25239;-76
2022/04/21 12:06:57;;;;;;;20.20;18.00;;;;;;;10.77;53.34;97438.20;107257;1274;22700;-76
2022/04/21 12:09:28;;;;;;;19.60;17.90;;;;;;;10.73;53.48;97437.66;106274;1274;24437;-75
2022/04/21 12:11:57;;;;;;;17.60;16.00;;;;;;;10.70;53.11;97444.73;106276;1274;25234;-77
2022/04/21 12:14:28;;;;;;;18.70;17.00;;;;;;;10.68;52.52;97442.79;107809;1273;23321;-78